Time;durP1;ratioP1;P1;durP2;ratioP2;P2;SDS_P1;SDS_P2;PMS_P1;PMS_P2;Temp;Humidity;BMP_temperature;BMP_pressure;BME280_temperature;BME280_humidity;BME280_pressure;Samples;Min_cycle;Max_cycle;Signal;HPM_P1;HPM_P2
2023/07/26 00:01:58;;;;;;;0.40;0.20;;;;;;;16.80;85.94;99791.16;5027733;28;20459;-52
2023/07/26 00:04:24;;;;;;;0.40;0.20;;;;;;;16.73;87.10;99795.19;5035669;28;20443;-52
2023/07/26 00:06:50;;;;;;;0.40;0.20;;;;;;;16.70;86.85;99800.72;5035639;28;20566;-52
2023/07/26 00:09:18;;;;;;;0.40;0.20;;;;;;;16.66;88.14;99793.78;5035587;28;20451;-52
2023/07/26 00:11:44;;;;;;;0.40;0.20;;;;;;;16.84;86.37;99798.91;5035433;28;20447;-52
2023/07/26 00:14:11;;;;;;;0.40;0.20;;;;;;;16.63;86.25;99807.41;5035379;28;20505;-52
2023/07/26 00:16:37;;;;;;;0.40;0.20;;;;;;;16.65;87.36;99802.81;5035026;28;20519;-52
2023/07/26 00:19:04;;;;;;;0.40;0.20;;;;;;;16.56;87.62;99796.16;5035473;28;20498;-52
2023/07/26 00:21:32;;;;;;;0.40;0.20;;;;;;;16.24;88.11;99803.50;5034281;28;20466;-52
2023/07/26 00:23:59;;;;;;;0.40;0.20;;;;;;;16.03;90.07;99802.94;5024865;28;20479;-52
2023/07/26 00:26:25;;;;;;;0.40;0.20;;;;;;;15.87;90.43;99796.75;5020387;28;20463;-52
2023/07/26 00:28:52;;;;;;;0.40;0.20;;;;;;;15.94;90.46;99804.34;5035299;28;20483;-52
2023/07/26 00:31:18;;;;;;;0.40;0.20;;;;;;;15.98;89.79;99805.03;5022651;28;20858;-52
2023/07/26 00:33:45;;;;;;;0.50;0.20;;;;;;;15.88;89.99;99809.19;5034038;28;20515;-51
2023/07/26 00:36:11;;;;;;;0.50;0.20;;;;;;;15.83;90.73;99800.56;5034718;28;20525;-52
2023/07/26 00:38:38;;;;;;;0.40;0.20;;;;;;;15.42;91.41;99803.75;5035235;28;20448;-51
2023/07/26 00:41:06;;;;;;;0.40;0.20;;;;;;;15.55;92.31;99809.28;5034950;28;20459;-52
2023/07/26 00:43:33;;;;;;;0.40;0.20;;;;;;;15.31;92.65;99812.38;5034699;28;21033;-51
2023/07/26 00:46:00;;;;;;;0.40;0.20;;;;;;;15.38;92.79;99815.59;5034768;28;20471;-51
2023/07/26 00:48:27;;;;;;;0.40;0.20;;;;;;;15.19;91.93;99821.09;5034652;28;20456;-52
2023/07/26 00:50:54;;;;;;;0.40;0.20;;;;;;;15.38;91.99;99813.78;5034494;28;20452;-52
2023/07/26 00:53:22;;;;;;;0.40;0.20;;;;;;;15.24;92.69;99820.88;5033660;28;20868;-51
2023/07/26 00:55:48;;;;;;;0.40;0.20;;;;;;;15.32;92.53;99819.47;5008952;28;20503;-51
2023/07/26 00:58:15;;;;;;;0.50;0.20;;;;;;;15.33;92.06;99826.56;5034670;28;20534;-52
2023/07/26 01:00:44;;;;;;;0.40;0.20;;;;;;;14.90;92.10;99828.03;5028173;28;20501;-51
2023/07/26 01:03:12;;;;;;;0.40;0.20;;;;;;;15.35;90.47;99830.03;5029844;28;20466;-52
2023/07/26 01:06:03;;;;;;;0.40;0.20;;;;;;;15.49;89.97;99831.94;5034287;28;20464;-52
2023/07/26 01:08:50;;;;;;;0.40;0.20;;;;;;;14.84;92.66;99836.41;5034199;28;20526;-51
2023/07/26 01:11:48;;;;;;;0.40;0.20;;;;;;;15.21;91.66;99829.03;5034122;28;20459;-51
2023/07/26 01:14:27;;;;;;;0.40;0.20;;;;;;;15.17;91.75;99827.50;5032973;28;20570;-52
2023/07/26 01:16:54;;;;;;;0.40;0.20;;;;;;;14.47;93.54;99830.31;5033873;28;20479;-51
2023/07/26 01:19:21;;;;;;;0.40;0.20;;;;;;;14.66;93.71;99829.34;5034119;28;20458;-51
2023/07/26 01:21:48;;;;;;;0.40;0.20;;;;;;;14.95;93.42;99835.84;5033909;28;20604;-51
2023/07/26 01:24:14;;;;;;;0.40;0.20;;;;;;;14.81;93.98;99828.56;5019965;28;20449;-52
2023/07/26 01:26:41;;;;;;;0.40;0.20;;;;;;;14.75;93.69;99821.69;5021815;28;20555;-51
2023/07/26 01:29:08;;;;;;;0.40;0.20;;;;;;;15.03;91.99;99823.75;5032637;28;20530;-51
2023/07/26 01:31:36;;;;;;;0.40;0.20;;;;;;;14.98;92.16;99825.81;5022236;28;20447;-51
2023/07/26 01:34:05;;;;;;;0.40;0.20;;;;;;;15.10;92.42;99825.16;5033580;28;20515;-51
2023/07/26 01:36:33;;;;;;;0.40;0.20;;;;;;;14.93;92.97;99827.88;5033376;28;21048;-51
2023/07/26 01:39:01;;;;;;;0.40;0.20;;;;;;;14.89;93.33;99822.78;5033629;28;20543;-51
2023/07/26 01:41:29;;;;;;;0.40;0.20;;;;;;;14.92;93.57;99833.31;5034033;28;20510;-52
2023/07/26 01:43:56;;;;;;;0.40;0.20;;;;;;;14.80;93.45;99830.38;5033512;28;20455;-51
2023/07/26 01:46:22;;;;;;;0.40;0.20;;;;;;;14.87;93.98;99822.84;5033677;28;20499;-51
2023/07/26 01:48:49;;;;;;;0.40;0.20;;;;;;;14.84;93.59;99828.38;5032238;28;20463;-52
2023/07/26 01:51:15;;;;;;;0.40;0.20;;;;;;;14.74;92.92;99828.00;5033481;28;20539;-51
2023/07/26 01:53:43;;;;;;;0.40;0.20;;;;;;;14.57;93.55;99824.50;5033497;28;20582;-51
2023/07/26 01:56:09;;;;;;;0.40;0.20;;;;;;;14.72;93.60;99829.88;5033435;28;20547;-51
2023/07/26 01:58:36;;;;;;;0.40;0.20;;;;;;;14.77;93.57;99837.66;5033161;28;20539;-51
2023/07/26 02:01:03;;;;;;;0.40;0.20;;;;;;;14.92;93.31;99834.16;5027049;28;20483;-51
2023/07/26 02:03:30;;;;;;;0.40;0.20;;;;;;;14.84;94.82;99836.41;5030055;28;20997;-51
2023/07/26 02:05:56;;;;;;;0.40;0.20;;;;;;;14.57;95.73;99835.19;5033286;28;20464;-51
2023/07/26 02:08:23;;;;;;;0.40;0.20;;;;;;;14.81;95.83;99837.44;5033098;28;20538;-51
2023/07/26 02:10:49;;;;;;;0.40;0.20;;;;;;;14.85;95.74;99846.16;5033403;28;20876;-52
2023/07/26 02:13:16;;;;;;;0.40;0.20;;;;;;;14.93;95.93;99840.38;5032954;28;20488;-52
2023/07/26 02:15:42;;;;;;;0.40;0.20;;;;;;;14.81;96.15;99839.25;5032845;28;20534;-51
2023/07/26 02:18:09;;;;;;;0.40;0.20;;;;;;;14.41;98.10;99841.31;5032940;28;20546;-51
2023/07/26 02:20:35;;;;;;;0.40;0.20;;;;;;;14.66;98.30;99840.91;5033275;28;20491;-51
2023/07/26 02:23:02;;;;;;;0.40;0.20;;;;;;;14.79;98.50;99838.44;5030074;28;20868;-51
2023/07/26 02:25:28;;;;;;;0.40;0.20;;;;;;;14.84;97.87;99839.09;5013510;28;20468;-51
2023/07/26 02:27:55;;;;;;;0.40;0.20;;;;;;;14.84;97.70;99841.75;5031121;28;20908;-50
2023/07/26 02:30:21;;;;;;;0.40;0.20;;;;;;;14.90;97.79;99846.78;5023500;28;20462;-51
2023/07/26 02:32:48;;;;;;;0.40;0.20;;;;;;;14.91;97.96;99850.31;5030606;28;20530;-52
2023/07/26 02:35:15;;;;;;;0.40;0.20;;;;;;;15.02;97.56;99851.47;5032936;28;20570;-51
2023/07/26 02:37:41;;;;;;;0.40;0.20;;;;;;;14.89;98.22;99845.03;5032774;28;21014;-51
2023/07/26 02:40:08;;;;;;;0.40;0.20;;;;;;;14.99;97.51;99848.09;5032832;28;20891;-51
2023/07/26 02:42:34;;;;;;;0.40;0.20;;;;;;;15.21;96.90;99845.09;5032765;28;20452;-51
2023/07/26 02:45:01;;;;;;;0.40;0.20;;;;;;;15.27;96.93;99847.47;5032641;28;20560;-52
2023/07/26 02:47:31;;;;;;;0.40;0.20;;;;;;;15.25;96.34;99852.03;5031242;28;20513;-51
2023/07/26 02:50:01;;;;;;;0.40;0.20;;;;;;;15.33;95.88;99847.97;5032762;28;20454;-51
2023/07/26 02:52:27;;;;;;;0.40;0.20;;;;;;;15.28;95.54;99843.84;5032504;28;20456;-51
2023/07/26 02:54:54;;;;;;;0.40;0.20;;;;;;;14.77;96.88;99845.69;5032386;28;21083;-50
2023/07/26 02:57:20;;;;;;;0.40;0.20;;;;;;;14.88;97.41;99848.66;5033381;28;20563;-51
2023/07/26 02:59:47;;;;;;;0.40;0.20;;;;;;;15.07;96.77;99852.06;5027434;28;20485;-52
2023/07/26 03:02:13;;;;;;;0.40;0.20;;;;;;;15.23;96.45;99848.59;5027727;28;20464;-51
2023/07/26 03:04:40;;;;;;;0.40;0.20;;;;;;;15.13;97.38;99856.25;5032358;28;20454;-52
2023/07/26 03:07:07;;;;;;;0.40;0.20;;;;;;;15.18;96.84;99856.84;5032324;28;20455;-52
2023/07/26 03:09:33;;;;;;;0.40;0.20;;;;;;;15.41;96.59;99850.25;5032283;28;20458;-52
2023/07/26 03:12:00;;;;;;;0.40;0.20;;;;;;;15.34;96.54;99854.19;5032297;28;20459;-52
2023/07/26 03:14:26;;;;;;;0.40;0.20;;;;;;;15.37;96.66;99857.59;5032100;28;20487;-51
2023/07/26 03:16:53;;;;;;;0.40;0.20;;;;;;;15.41;97.21;99871.66;5035303;28;20562;-51
2023/07/26 03:19:23;;;;;;;0.40;0.20;;;;;;;15.31;97.16;99871.31;5038848;28;20439;-51
2023/07/26 03:21:50;;;;;;;0.40;0.20;;;;;;;15.35;96.92;99870.22;5038785;28;20462;-52
2023/07/26 03:24:16;;;;;;;0.40;0.20;;;;;;;15.39;96.81;99865.53;5025722;28;20952;-52
2023/07/26 03:26:42;;;;;;;0.40;0.20;;;;;;;15.54;97.03;99875.41;5026134;28;20474;-51
2023/07/26 03:29:09;;;;;;;0.40;0.20;;;;;;;15.47;97.62;99876.69;5038313;28;20557;-52
2023/07/26 03:31:35;;;;;;;0.40;0.20;;;;;;;15.45;98.06;99867.88;5026908;28;20538;-51
2023/07/26 03:34:02;;;;;;;0.40;0.20;;;;;;;15.46;97.46;99872.28;5038532;28;20529;-52
2023/07/26 03:36:28;;;;;;;0.40;0.20;;;;;;;15.57;97.33;99874.34;5038505;28;20559;-51
2023/07/26 03:38:55;;;;;;;0.40;0.20;;;;;;;15.31;98.40;99870.44;5038541;28;20451;-52
2023/07/26 03:41:22;;;;;;;0.40;0.20;;;;;;;15.30;98.97;99879.41;5038519;28;20945;-52
2023/07/26 03:43:48;;;;;;;0.40;0.20;;;;;;;15.31;99.09;99873.13;5038392;28;20483;-51
2023/07/26 03:46:15;;;;;;;0.40;0.20;;;;;;;15.32;98.27;99872.16;5038586;28;21000;-51
2023/07/26 03:48:41;;;;;;;0.40;0.20;;;;;;;15.22;98.38;99884.34;5038449;28;20458;-52
2023/07/26 03:51:08;;;;;;;0.40;0.20;;;;;;;15.28;98.55;99886.69;5038456;28;20458;-53
2023/07/26 03:53:34;;;;;;;0.40;0.20;;;;;;;15.18;99.00;99882.75;5038244;28;21039;-51
2023/07/26 03:56:01;;;;;;;0.40;0.20;;;;;;;15.30;97.55;99874.94;5038245;28;20471;-52
2023/07/26 03:58:27;;;;;;;0.40;0.20;;;;;;;15.31;97.25;99883.84;5038807;28;20857;-52
2023/07/26 04:00:54;;;;;;;0.40;0.20;;;;;;;15.39;97.17;99882.47;5033800;28;20520;-51
2023/07/26 04:03:20;;;;;;;0.40;0.20;;;;;;;15.40;96.98;99886.00;5034892;28;20473;-52
2023/07/26 04:05:47;;;;;;;0.40;0.20;;;;;;;15.50;97.39;99881.03;5038362;28;20475;-52
2023/07/26 04:08:13;;;;;;;0.40;0.20;;;;;;;15.56;96.78;99884.22;5037942;28;20534;-52
2023/07/26 04:10:40;;;;;;;0.40;0.20;;;;;;;15.60;97.13;99887.63;5038263;28;20479;-52
2023/07/26 04:13:06;;;;;;;0.40;0.20;;;;;;;15.53;96.78;99891.56;5038371;28;20587;-52
2023/07/26 04:15:33;;;;;;;0.40;0.20;;;;;;;15.27;98.00;99895.66;5038384;28;20927;-53
2023/07/26 04:17:59;;;;;;;0.40;0.20;;;;;;;15.38;97.85;99886.09;5038269;28;20440;-52
2023/07/26 04:20:26;;;;;;;0.40;0.20;;;;;;;15.53;97.50;99897.78;5038284;28;20479;-51
2023/07/26 04:22:52;;;;;;;0.40;0.20;;;;;;;15.63;96.97;99899.03;5036515;28;20530;-52
2023/07/26 04:25:19;;;;;;;0.40;0.20;;;;;;;15.48;96.40;99901.66;5018349;28;20555;-51
2023/07/26 04:27:46;;;;;;;0.40;0.20;;;;;;;15.44;96.86;99900.97;5034246;28;20535;-52
2023/07/26 04:30:12;;;;;;;0.40;0.20;;;;;;;15.37;98.04;99899.59;5027052;28;20480;-52
2023/07/26 04:32:38;;;;;;;0.40;0.20;;;;;;;15.44;98.27;99905.44;5031909;28;20490;-51
2023/07/26 04:35:05;;;;;;;0.40;0.20;;;;;;;15.30;98.10;99892.81;5034883;28;20995;-52
2023/07/26 04:37:32;;;;;;;0.40;0.20;;;;;;;15.11;99.43;99888.47;5034665;28;21005;-52
2023/07/26 04:40:00;;;;;;;0.40;0.20;;;;;;;15.44;98.44;99889.38;5034823;28;21071;-52
2023/07/26 04:42:27;;;;;;;0.40;0.20;;;;;;;15.41;98.24;99896.63;5034790;28;20463;-52
2023/07/26 04:44:53;;;;;;;0.40;0.20;;;;;;;15.50;97.45;99897.09;5034958;28;20457;-52
2023/07/26 04:47:22;;;;;;;0.40;0.20;;;;;;;15.56;97.08;99891.38;5034723;28;20454;-53
2023/07/26 04:49:48;;;;;;;0.40;0.20;;;;;;;15.69;96.21;99901.38;5034742;28;20498;-52
2023/07/26 04:52:15;;;;;;;0.40;0.20;;;;;;;15.77;95.31;99910.81;5034501;28;20498;-53
2023/07/26 04:54:41;;;;;;;0.40;0.20;;;;;;;15.85;94.60;99914.78;5034459;28;20574;-52
2023/07/26 04:57:08;;;;;;;0.40;0.20;;;;;;;15.87;94.72;99912.88;5034495;28;20540;-52
2023/07/26 04:59:34;;;;;;;0.40;0.20;;;;;;;15.95;93.67;99921.34;5031549;28;20892;-53
2023/07/26 05:02:01;;;;;;;0.40;0.20;;;;;;;15.92;93.11;99920.66;5027584;28;20462;-52
2023/07/26 05:04:27;;;;;;;0.40;0.20;;;;;;;16.22;92.52;99931.44;5034320;28;20534;-52
2023/07/26 05:06:54;;;;;;;0.40;0.20;;;;;;;16.27;91.88;99924.00;5033948;28;20825;-52
2023/07/26 05:09:20;;;;;;;0.40;0.20;;;;;;;16.16;92.40;99918.38;5034371;28;20448;-52
2023/07/26 05:11:47;;;;;;;0.40;0.20;;;;;;;16.23;91.57;99934.03;5033924;28;20893;-52
2023/07/26 05:14:13;;;;;;;0.40;0.20;;;;;;;16.34;91.35;99924.53;5033971;28;21027;-52
2023/07/26 05:16:39;;;;;;;0.40;0.20;;;;;;;16.26;90.89;99931.19;5033737;28;20507;-52
2023/07/26 05:19:06;;;;;;;0.40;0.20;;;;;;;16.28;90.85;99929.28;5034075;28;20454;-53
2023/07/26 05:21:32;;;;;;;0.40;0.20;;;;;;;16.36;90.53;99941.38;5033771;28;20531;-52
2023/07/26 05:24:00;;;;;;;0.40;0.20;;;;;;;16.42;90.49;99941.03;5023499;28;20459;-52
2023/07/26 05:26:26;;;;;;;0.40;0.20;;;;;;;16.36;90.39;99944.94;5020083;28;20554;-52
2023/07/26 05:28:53;;;;;;;0.40;0.20;;;;;;;16.44;90.03;99944.47;5034112;28;20452;-52
2023/07/26 05:31:19;;;;;;;0.40;0.20;;;;;;;16.48;90.46;99940.69;5022740;28;20448;-51
2023/07/26 05:33:46;;;;;;;0.40;0.20;;;;;;;16.39;90.71;99942.06;5033824;28;20466;-52
2023/07/26 05:36:12;;;;;;;0.40;0.20;;;;;;;16.53;90.72;99946.63;5033527;28;20562;-52
2023/07/26 05:38:38;;;;;;;0.40;0.20;;;;;;;16.55;90.58;99950.09;5033803;28;20836;-52
2023/07/26 05:41:05;;;;;;;0.40;0.20;;;;;;;16.51;90.71;99945.84;5033420;28;20471;-52
2023/07/26 05:43:32;;;;;;;0.40;0.20;;;;;;;16.74;89.83;99934.66;5033573;28;20451;-52
2023/07/26 05:46:00;;;;;;;0.40;0.20;;;;;;;16.67;89.49;99945.81;5033565;28;20546;-52
2023/07/26 05:48:27;;;;;;;0.40;0.20;;;;;;;16.65;90.08;99950.41;5033407;28;20456;-52
2023/07/26 05:50:54;;;;;;;0.40;0.20;;;;;;;16.64;90.50;99954.91;5033403;28;20509;-52
2023/07/26 05:53:20;;;;;;;0.40;0.20;;;;;;;16.56;90.30;99962.53;5033548;28;20949;-52
2023/07/26 05:55:46;;;;;;;0.40;0.20;;;;;;;16.64;89.99;99954.06;5006906;28;20495;-52
2023/07/26 05:58:13;;;;;;;0.40;0.20;;;;;;;16.50;88.78;99966.47;5033769;28;20853;-52
2023/07/26 06:00:39;;;;;;;0.40;0.20;;;;;;;16.86;87.99;99959.94;5028207;28;21020;-52
2023/07/26 06:03:06;;;;;;;0.40;0.20;;;;;;;16.78;87.29;99960.38;5029164;28;20529;-52
2023/07/26 06:05:32;;;;;;;0.40;0.20;;;;;;;16.86;88.68;99960.78;5033348;28;20546;-52
2023/07/26 06:07:59;;;;;;;0.40;0.20;;;;;;;16.96;87.53;99961.06;5033169;28;20538;-52
2023/07/26 06:10:25;;;;;;;0.40;0.20;;;;;;;16.87;87.12;99961.66;5033080;28;20531;-52
2023/07/26 06:12:52;;;;;;;0.40;0.20;;;;;;;17.00;87.18;99956.41;5032859;28;20530;-52
2023/07/26 06:15:18;;;;;;;0.40;0.20;;;;;;;17.28;86.48;99963.66;5033072;28;20585;-52
2023/07/26 06:17:45;;;;;;;0.40;0.20;;;;;;;17.16;86.66;99968.81;5032832;28;21013;-52
2023/07/26 06:20:11;;;;;;;0.40;0.20;;;;;;;17.29;86.79;99966.25;5033026;28;20868;-52
2023/07/26 06:22:38;;;;;;;0.40;0.20;;;;;;;17.11;86.67;99981.63;5032989;28;20868;-52
2023/07/26 06:25:05;;;;;;;0.40;0.20;;;;;;;17.13;86.79;99974.38;5013476;28;20544;-52
2023/07/26 06:27:31;;;;;;;0.40;0.20;;;;;;;17.58;85.14;99975.19;5027059;28;20514;-52
2023/07/26 06:29:58;;;;;;;0.40;0.20;;;;;;;17.39;85.57;99979.94;5026566;28;20464;-52
2023/07/26 06:32:24;;;;;;;0.40;0.20;;;;;;;17.37;85.77;99989.94;5027151;28;20456;-52
2023/07/26 06:34:51;;;;;;;0.40;0.20;;;;;;;17.42;85.95;99977.97;5032857;28;20921;-52
2023/07/26 06:37:17;;;;;;;0.40;0.20;;;;;;;17.53;85.63;99982.66;5032804;28;20456;-52
2023/07/26 06:39:44;;;;;;;0.40;0.20;;;;;;;17.45;85.63;99977.75;5032763;28;20534;-52
2023/07/26 06:42:11;;;;;;;0.40;0.20;;;;;;;17.56;85.06;99976.25;5032734;28;20486;-52
2023/07/26 06:44:40;;;;;;;0.40;0.20;;;;;;;17.26;84.67;99981.66;5032648;28;20448;-52
2023/07/26 06:47:07;;;;;;;0.40;0.20;;;;;;;17.65;84.39;99972.97;5032738;28;20562;-52
2023/07/26 06:49:34;;;;;;;0.40;0.20;;;;;;;17.91;82.74;99974.03;5032823;28;20533;-52
2023/07/26 06:52:01;;;;;;;0.40;0.20;;;;;;;18.08;82.28;99972.94;5031524;28;20538;-52
2023/07/26 06:54:27;;;;;;;0.40;0.20;;;;;;;18.06;80.98;99968.53;5032510;28;20586;-52
2023/07/26 06:56:54;;;;;;;0.40;0.20;;;;;;;17.90;81.60;99965.09;5032181;28;20499;-52
2023/07/26 06:59:21;;;;;;;0.40;0.20;;;;;;;18.10;81.49;99976.41;5031093;28;21009;-53
2023/07/26 07:01:48;;;;;;;0.40;0.20;;;;;;;18.08;81.08;99978.31;5023570;28;21008;-53
2023/07/26 07:04:14;;;;;;;0.40;0.20;;;;;;;18.23;80.49;99978.22;5032476;28;20463;-53
2023/07/26 07:06:42;;;;;;;0.40;0.20;;;;;;;18.05;80.36;99971.31;5032298;28;20471;-52
2023/07/26 07:09:09;;;;;;;0.40;0.20;;;;;;;18.11;80.61;99975.47;5032477;28;20458;-52
2023/07/26 07:11:35;;;;;;;0.40;0.20;;;;;;;18.06;81.05;99973.91;5032286;28;20538;-53
2023/07/26 07:14:02;;;;;;;0.93;0.93;;;;;;;18.24;80.65;99974.56;5032250;28;20452;-53
2023/07/26 07:16:29;;;;;;;0.40;0.20;;;;;;;18.19;79.29;99982.03;5031998;28;20582;-52
2023/07/26 07:18:56;;;;;;;0.40;0.20;;;;;;;18.77;78.18;99980.03;5032486;28;20465;-52
2023/07/26 07:21:22;;;;;;;0.40;0.20;;;;;;;18.63;77.79;99987.22;5032243;28;20461;-52
2023/07/26 07:23:52;;;;;;;0.40;0.20;;;;;;;18.50;79.03;99980.03;5022755;28;20459;-52
2023/07/26 07:26:18;;;;;;;0.40;0.20;;;;;;;18.34;79.04;99974.78;5017348;28;20514;-52
2023/07/26 07:28:45;;;;;;;0.47;0.30;;;;;;;18.31;78.86;99978.56;5032161;28;20941;-52
2023/07/26 07:31:11;;;;;;;0.40;0.20;;;;;;;18.32;78.54;99980.28;5020791;28;20534;-53
2023/07/26 07:33:38;;;;;;;0.40;0.20;;;;;;;18.96;77.77;99985.94;5032215;28;21318;-53
2023/07/26 07:36:06;;;;;;;0.40;0.20;;;;;;;18.92;76.83;99977.22;5032112;28;20495;-52
2023/07/26 07:38:33;;;;;;;0.40;0.20;;;;;;;19.30;75.96;99978.22;5032261;28;20895;-53
2023/07/26 07:41:00;;;;;;;0.40;0.20;;;;;;;19.40;74.43;99985.56;5032440;28;20456;-53
2023/07/26 07:43:28;;;;;;;0.40;0.20;;;;;;;19.46;73.77;99981.56;5032641;28;20471;-52
2023/07/26 07:45:54;;;;;;;0.40;0.20;;;;;;;19.69;72.54;99988.91;5031989;28;20945;-53
2023/07/26 07:48:21;;;;;;;0.40;0.20;;;;;;;20.10;71.49;99983.25;5032384;28;20968;-53
2023/07/26 07:50:54;;;;;;;0.40;0.20;;;;;;;19.91;71.11;99987.41;5032020;28;20991;-53
2023/07/26 07:53:20;;;;;;;0.50;0.40;;;;;;;20.14;70.53;99989.25;5032183;28;20447;-52
2023/07/26 07:55:47;;;;;;;0.50;0.20;;;;;;;19.87;69.43;99991.25;5005564;28;20570;-53
2023/07/26 07:58:14;;;;;;;0.40;0.20;;;;;;;19.63;70.16;99983.97;5031769;28;20459;-53
2023/07/26 08:00:40;;;;;;;0.40;0.20;;;;;;;19.84;71.11;99995.06;5026627;28;20521;-52
2023/07/26 08:03:07;;;;;;;0.50;0.20;;;;;;;19.63;71.26;99991.22;5028739;28;20456;-55
2023/07/26 08:05:33;;;;;;;0.40;0.20;;;;;;;19.75;71.13;99991.19;5010034;28;20471;-53
2023/07/26 08:08:00;;;;;;;0.40;0.20;;;;;;;20.04;69.59;99996.34;5035470;28;20473;-52
2023/07/26 08:10:26;;;;;;;0.40;0.20;;;;;;;19.98;71.45;99996.75;5035772;28;20542;-53
2023/07/26 08:12:53;;;;;;;0.50;0.20;;;;;;;19.91;71.46;99993.66;5035362;28;20451;-52
2023/07/26 08:15:19;;;;;;;0.40;0.20;;;;;;;19.83;70.88;99999.59;5035412;28;20514;-53
2023/07/26 08:17:46;;;;;;;0.40;0.20;;;;;;;19.76;71.21;99994.75;5035361;28;20447;-53
2023/07/26 08:20:13;;;;;;;0.43;0.20;;;;;;;20.00;71.27;99992.97;5035331;28;20960;-53
2023/07/26 08:22:39;;;;;;;0.40;0.20;;;;;;;19.94;72.39;99987.16;5035163;28;20452;-53
2023/07/26 08:25:07;;;;;;;0.40;0.20;;;;;;;20.19;70.72;99994.34;5015372;28;20464;-53
2023/07/26 08:27:33;;;;;;;0.40;0.20;;;;;;;20.52;68.31;99993.72;5029985;28;20419;-52
2023/07/26 08:30:00;;;;;;;0.50;0.20;;;;;;;20.58;67.40;99986.03;5028471;28;20483;-52
2023/07/26 08:32:27;;;;;;;0.40;0.20;;;;;;;20.62;68.07;99998.31;5030142;28;20822;-53
2023/07/26 08:34:53;;;;;;;0.40;0.20;;;;;;;20.38;66.69;100002.81;5034871;28;20976;-53
2023/07/26 08:37:20;;;;;;;0.40;0.20;;;;;;;20.83;65.80;99997.66;5034720;28;20870;-53
2023/07/26 08:39:46;;;;;;;0.40;0.20;;;;;;;20.35;65.40;99987.72;5035046;28;20480;-53
2023/07/26 08:42:12;;;;;;;0.40;0.20;;;;;;;20.58;66.93;99988.75;5034729;28;20447;-52
2023/07/26 08:44:40;;;;;;;0.40;0.20;;;;;;;20.69;65.19;99986.06;5034903;28;20495;-52
2023/07/26 08:47:09;;;;;;;0.40;0.20;;;;;;;21.26;64.72;99989.91;5034737;28;20452;-52
2023/07/26 08:49:36;;;;;;;0.40;0.20;;;;;;;20.93;64.53;99986.06;5034806;28;20460;-50
2023/07/26 08:52:03;;;;;;;0.50;0.20;;;;;;;21.37;63.17;99984.47;5034402;28;20530;-51
2023/07/26 08:54:31;;;;;;;0.40;0.20;;;;;;;21.15;63.83;99985.28;5034927;28;20454;-51
2023/07/26 08:56:57;;;;;;;0.40;0.20;;;;;;;21.33;63.61;99984.84;5021268;28;20499;-50
2023/07/26 08:59:24;;;;;;;0.40;0.20;;;;;;;21.27;63.02;99978.97;5032991;28;20869;-50
2023/07/26 09:01:54;;;;;;;0.50;0.20;;;;;;;21.08;63.44;99983.16;5026644;28;20546;-51
2023/07/26 09:04:33;;;;;;;0.40;0.20;;;;;;;21.31;63.02;99987.69;5034357;28;20443;-52
2023/07/26 09:07:03;;;;;;;0.40;0.20;;;;;;;21.03;62.91;99983.53;5034225;28;20468;-52
2023/07/26 09:09:31;;;;;;;0.40;0.20;;;;;;;21.28;62.53;99991.50;5034590;28;20481;-52
2023/07/26 09:11:58;;;;;;;0.50;0.20;;;;;;;20.68;64.68;99986.19;5034370;28;20455;-51
2023/07/26 09:14:27;;;;;;;0.40;0.20;;;;;;;20.66;64.20;99977.34;5033441;28;21007;-51
2023/07/26 09:16:58;;;;;;;0.40;0.20;;;;;;;21.08;63.37;99984.00;5034447;28;20506;-54
2023/07/26 09:19:29;;;;;;;0.50;0.40;;;;;;;21.10;61.93;99978.50;5034365;28;20523;-54
2023/07/26 09:21:59;;;;;;;0.40;0.20;;;;;;;21.29;61.42;99978.84;5034132;28;20498;-55
2023/07/26 09:24:35;;;;;;;0.40;0.20;;;;;;;20.92;62.07;99975.38;5017293;28;20491;-54
2023/07/26 09:27:10;;;;;;;0.40;0.20;;;;;;;21.06;61.59;99974.31;5013654;28;20554;-55
2023/07/26 09:29:52;;;;;;;0.50;0.20;;;;;;;21.28;60.73;99977.13;5030319;28;20452;-55
2023/07/26 09:32:26;;;;;;;0.40;0.20;;;;;;;21.47;60.46;99974.69;5027361;28;20796;-55
2023/07/26 09:34:53;;;;;;;0.40;0.20;;;;;;;21.22;60.35;99974.84;5009969;28;20543;-55
2023/07/26 09:37:22;;;;;;;0.40;0.20;;;;;;;21.05;61.44;99973.44;5033957;28;20438;-55
2023/07/26 09:39:49;;;;;;;0.40;0.20;;;;;;;21.07;62.05;99982.28;5033688;28;20876;-55
2023/07/26 09:42:16;;;;;;;0.50;0.20;;;;;;;20.99;62.25;99984.75;5033780;28;20452;-54
2023/07/26 09:44:46;;;;;;;0.40;0.20;;;;;;;20.86;62.50;99981.25;5033864;28;20430;-55
2023/07/26 09:47:15;;;;;;;0.50;0.20;;;;;;;20.67;63.67;99979.06;5033559;28;20898;-55
2023/07/26 09:49:51;;;;;;;0.40;0.20;;;;;;;20.88;62.49;99980.16;5033722;28;20451;-55
2023/07/26 09:52:39;;;;;;;0.50;0.20;;;;;;;20.48;62.11;99982.28;5009415;28;20452;-54
2023/07/26 09:55:07;;;;;;;0.50;0.20;;;;;;;20.64;61.09;99980.16;5033184;28;20468;-54
2023/07/26 09:57:37;;;;;;;0.40;0.20;;;;;;;20.84;59.86;99983.22;5033625;28;20458;-54
2023/07/26 10:00:06;;;;;;;0.40;0.20;;;;;;;20.67;58.22;99981.75;5028199;28;20472;-54
2023/07/26 10:02:34;;;;;;;0.40;0.20;;;;;;;20.97;57.42;99987.56;5029111;28;20434;-54
2023/07/26 10:05:04;;;;;;;0.40;0.20;;;;;;;20.70;57.40;99989.66;5033076;28;21109;-54
2023/07/26 10:07:31;;;;;;;0.40;0.20;;;;;;;20.81;58.28;99992.38;5033484;28;20497;-54
2023/07/26 10:10:00;;;;;;;0.40;0.20;;;;;;;21.06;58.52;99993.22;5033300;28;20426;-55
2023/07/26 10:12:28;;;;;;;0.40;0.30;;;;;;;21.40;58.00;99978.00;5033386;28;20884;-55
2023/07/26 10:14:59;;;;;;;0.40;0.20;;;;;;;21.95;57.33;99989.84;5033005;28;20484;-55
2023/07/26 10:17:28;;;;;;;0.50;0.20;;;;;;;22.17;56.04;99976.31;5032913;28;20505;-55
2023/07/26 10:19:56;;;;;;;0.47;0.20;;;;;;;22.30;56.02;99970.75;5033015;28;20485;-54
2023/07/26 10:22:23;;;;;;;0.50;0.20;;;;;;;23.09;53.76;99976.78;5033195;28;20486;-55
2023/07/26 10:24:50;;;;;;;0.50;0.20;;;;;;;23.04;51.96;99977.19;5015378;28;20442;-55
2023/07/26 10:27:16;;;;;;;0.50;0.20;;;;;;;22.95;51.91;99962.53;5025239;28;20429;-55
2023/07/26 10:29:44;;;;;;;0.50;0.20;;;;;;;23.48;50.96;99959.75;5028454;28;20449;-55
2023/07/26 10:32:11;;;;;;;0.50;0.20;;;;;;;22.83;50.45;99966.28;5026127;28;20448;-55
2023/07/26 10:34:38;;;;;;;0.50;0.20;;;;;;;22.79;52.06;99964.81;5032984;28;20538;-55
2023/07/26 10:37:19;;;;;;;0.50;0.20;;;;;;;22.73;51.09;99955.31;5031594;28;20488;-55
2023/07/26 10:39:48;;;;;;;0.50;0.30;;;;;;;22.83;50.85;99950.03;5032728;28;20451;-55
2023/07/26 10:42:25;;;;;;;0.50;0.20;;;;;;;22.36;52.05;99948.59;5032505;28;20428;-55
2023/07/26 10:44:53;;;;;;;0.50;0.20;;;;;;;22.30;51.57;99943.66;5032756;28;20503;-55
2023/07/26 10:47:20;;;;;;;0.50;0.20;;;;;;;22.08;52.88;99945.44;5031446;28;20593;-55
2023/07/26 10:49:47;;;;;;;0.50;0.30;;;;;;;21.82;52.40;99952.94;5032570;28;20948;-53
2023/07/26 10:52:14;;;;;;;0.50;0.20;;;;;;;22.04;51.80;99943.06;5032554;28;20530;-53
2023/07/26 10:54:42;;;;;;;0.50;0.20;;;;;;;21.69;53.16;99948.63;5032318;28;20995;-53
2023/07/26 10:57:16;;;;;;;0.50;0.20;;;;;;;21.47;54.23;99950.34;5031071;28;20466;-54
2023/07/26 11:00:02;;;;;;;0.50;0.20;;;;;;;21.21;53.91;99957.75;5028201;28;20507;-54
2023/07/26 11:02:49;;;;;;;0.50;0.20;;;;;;;21.44;54.50;99953.28;5013843;28;20543;-54
2023/07/26 11:05:21;;;;;;;0.50;0.20;;;;;;;21.26;54.04;99957.44;5031078;28;20496;-54
2023/07/26 11:07:58;;;;;;;0.50;0.20;;;;;;;21.19;55.52;99961.56;5032691;28;20971;-54
2023/07/26 11:10:29;;;;;;;0.50;0.20;;;;;;;21.42;55.52;99955.25;5032590;28;20475;-54
2023/07/26 11:13:18;;;;;;;0.50;0.20;;;;;;;21.82;54.77;99962.91;5032134;28;20425;-54
2023/07/26 11:15:50;;;;;;;0.50;0.20;;;;;;;22.21;52.81;99961.56;5031728;28;20499;-54
2023/07/26 11:18:40;;;;;;;0.40;0.20;;;;;;;22.42;51.97;99969.72;5008387;28;20915;-54
2023/07/26 11:21:14;;;;;;;0.50;0.20;;;;;;;22.34;52.03;99962.25;5032243;28;20433;-54
2023/07/26 11:23:40;;;;;;;0.50;0.20;;;;;;;22.12;52.09;99957.75;5022877;28;20954;-54
2023/07/26 11:26:07;;;;;;;0.50;0.20;;;;;;;21.89;52.72;99972.25;5014882;28;20504;-54
2023/07/26 11:28:34;;;;;;;0.50;0.20;;;;;;;21.81;52.63;99974.72;5032397;28;20451;-54
2023/07/26 11:31:01;;;;;;;0.50;0.20;;;;;;;21.57;53.38;99974.81;5020738;28;20459;-54
2023/07/26 11:33:40;;;;;;;0.50;0.20;;;;;;;22.01;52.49;99968.53;5032228;28;20456;-54
2023/07/26 11:36:08;;;;;;;0.40;0.20;;;;;;;21.49;54.33;99964.59;5032057;28;20530;-54
2023/07/26 11:38:34;;;;;;;0.50;0.20;;;;;;;21.49;55.05;99961.03;5034209;28;20452;-54